Time;durP1;ratioP1;P1;durP2;ratioP2;P2;SDS_P1;SDS_P2;PMS_P1;PMS_P2;Temp;Humidity;BMP_temperature;BMP_pressure;BME280_temperature;BME280_humidity;BME280_pressure;Samples;Min_cycle;Max_cycle;Signal;HPM_P1;HPM_P2
2022/07/15 00:01:54;;;;;;;3.05;1.08;;;;;;;-144.47;47.29;53223.56;4989819;28;20057;-64
2022/07/15 00:04:20;;;;;;;4.35;0.95;;;;;;;-144.47;47.37;53209.66;5003123;28;20113;-63
2022/07/15 00:06:45;;;;;;;4.80;1.02;;;;;;;-144.47;47.51;53223.56;4990177;28;20129;-65
2022/07/15 00:09:11;;;;;;;6.50;1.67;;;;;;;-144.47;47.52;53217.59;4985010;28;20157;-65
2022/07/15 00:11:36;;;;;;;4.35;0.85;;;;;;;-144.47;47.62;53215.59;4970193;28;20058;-65
2022/07/15 00:14:01;;;;;;;4.13;1.08;;;;;;;-144.47;47.80;53219.56;4975104;28;20022;-66
2022/07/15 00:16:27;;;;;;;12.30;1.42;;;;;;;-144.47;47.83;53193.75;4992217;28;20077;-63
2022/07/15 00:18:52;;;;;;;9.27;1.67;;;;;;;-144.47;48.13;53221.56;5004861;28;20022;-65
2022/07/15 00:21:18;;;;;;;4.05;1.00;;;;;;;-144.47;48.28;53203.69;4988959;28;20859;-64
2022/07/15 00:23:43;;;;;;;2.88;1.10;;;;;;;-144.47;48.69;53237.44;4988197;28;20476;-65
2022/07/15 00:26:08;;;;;;;4.53;1.02;;;;;;;-144.47;48.80;53201.69;4985116;28;20057;-65
2022/07/15 00:28:34;;;;;;;5.13;1.00;;;;;;;-144.47;48.86;53229.50;4971030;28;20039;-66
2022/07/15 00:30:59;;;;;;;4.40;1.00;;;;;;;-144.47;49.07;53277.19;4986154;28;20034;-65
2022/07/15 00:33:25;;;;;;;2.33;1.00;;;;;;;-144.47;49.22;53239.44;4980624;28;20034;-65
2022/07/15 00:35:50;;;;;;;1.90;0.77;;;;;;;-144.47;49.17;53193.75;4975728;28;20022;-66
2022/07/15 00:38:16;;;;;;;5.70;1.40;;;;;;;-144.47;49.26;53215.59;4970979;28;20034;-64
2022/07/15 00:40:46;;;;;;;1.55;0.82;;;;;;;-144.47;49.26;53225.53;4970359;28;20023;-64
2022/07/15 00:43:13;;;;;;;1.92;1.00;;;;;;;-144.47;49.33;53193.75;4970244;28;20031;-64
2022/07/15 00:45:39;;;;;;;3.80;1.00;;;;;;;-144.47;49.54;53245.41;4969818;28;20041;-65
2022/07/15 00:48:04;;;;;;;2.58;1.10;;;;;;;-144.47;49.33;53213.63;4976110;28;20026;-65
2022/07/15 00:50:31;;;;;;;7.80;1.70;;;;;;;-144.47;49.50;53241.44;4989047;28;20472;-66
2022/07/15 00:53:10;;;;;;;3.95;1.20;;;;;;;-144.47;49.28;53237.44;5001794;28;20464;-66
2022/07/15 00:55:43;;;;;;;7.50;1.38;;;;;;;-144.47;49.40;53203.69;4989428;28;20038;-66
2022/07/15 00:58:15;;;;;;;1.75;1.05;;;;;;;-144.47;49.42;53233.47;4973780;28;20064;-65
2022/07/15 01:00:42;;;;;;;4.70;1.20;;;;;;;-144.47;49.61;53213.63;4972292;28;20019;-62
2022/07/15 01:03:07;;;;;;;1.70;0.90;;;;;;;-144.47;49.71;53239.44;4980261;28;20220;-65
2022/07/15 01:05:33;;;;;;;2.83;1.05;;;;;;;-144.47;49.83;53213.63;5000345;28;20216;-63
2022/07/15 01:07:59;;;;;;;4.53;1.23;;;;;;;-144.47;50.09;53219.56;5003399;28;20477;-65
2022/07/15 01:10:25;;;;;;;1.20;0.80;;;;;;;-144.47;50.13;53227.53;4989246;28;20022;-62
2022/07/15 01:12:51;;;;;;;4.28;1.20;;;;;;;-144.47;50.08;53201.69;4983609;28;20030;-63
2022/07/15 01:15:18;;;;;;;2.70;1.27;;;;;;;-144.47;50.27;53287.13;4986522;28;20034;-65
2022/07/15 01:17:45;;;;;;;8.65;1.98;;;;;;;-144.47;50.31;53209.66;4993593;28;20112;-64
2022/07/15 01:20:12;;;;;;;3.13;1.10;;;;;;;-144.47;50.29;53233.47;4994663;28;20116;-62
2022/07/15 01:22:38;;;;;;;7.43;1.50;;;;;;;-144.47;50.47;53223.56;5009215;28;20053;-64
2022/07/15 01:25:04;;;;;;;4.35;1.10;;;;;;;-144.47;50.40;53219.56;5012547;28;20084;-63
2022/07/15 01:27:29;;;;;;;5.40;1.15;;;;;;;-144.47;50.59;53201.69;4997407;28;20104;-64
2022/07/15 01:29:54;;;;;;;4.15;1.02;;;;;;;-144.47;50.53;53209.66;5012872;28;20033;-65
2022/07/15 01:32:20;;;;;;;5.32;1.90;;;;;;;-144.47;50.64;53211.63;4995641;28;20085;-63
2022/07/15 01:34:48;;;;;;;4.40;1.40;;;;;;;-144.47;50.89;53225.53;4993243;28;20432;-66
2022/07/15 01:37:14;;;;;;;2.53;1.10;;;;;;;-144.47;50.92;53195.75;4978911;28;20059;-63
2022/07/15 01:39:40;;;;;;;8.05;1.13;;;;;;;-144.47;51.28;53253.34;4986853;28;20335;-63
2022/07/15 01:42:05;;;;;;;3.00;1.30;;;;;;;-144.47;51.27;53235.47;4991950;28;20038;-65
2022/07/15 01:44:31;;;;;;;2.65;1.10;;;;;;;-144.47;51.49;53241.44;5003887;28;20021;-63
2022/07/15 01:46:56;;;;;;;4.57;1.20;;;;;;;-144.47;51.59;53219.56;5011430;28;20522;-65
2022/07/15 01:49:21;;;;;;;5.07;1.40;;;;;;;-144.47;51.77;53183.81;4998942;28;20022;-64
2022/07/15 01:51:47;;;;;;;7.78;1.30;;;;;;;-144.47;51.97;53249.38;4991054;28;20022;-66
2022/07/15 01:54:13;;;;;;;2.78;0.88;;;;;;;-144.47;51.99;53223.56;5000524;28;20034;-64
2022/07/15 01:56:38;;;;;;;3.13;1.17;;;;;;;-144.47;52.21;53217.59;5011076;28;20160;-65
2022/07/15 01:59:03;;;;;;;3.97;1.40;;;;;;;-144.47;52.44;53229.50;5012446;28;20045;-63
2022/07/15 02:01:29;;;;;;;11.20;1.40;;;;;;;-144.47;52.77;53273.22;5005693;28;20492;-63
2022/07/15 02:03:54;;;;;;;5.32;1.40;;;;;;;-144.47;52.76;53253.34;5004480;28;20026;-64
2022/07/15 02:06:20;;;;;;;3.60;1.27;;;;;;;-144.47;52.86;53241.44;5011986;28;20021;-63
2022/07/15 02:08:45;;;;;;;3.38;1.30;;;;;;;-144.47;53.00;53239.44;4999453;28;20022;-65
2022/07/15 02:11:11;;;;;;;4.78;1.30;;;;;;;-144.47;53.17;53235.47;4974288;28;20161;-64
2022/07/15 02:13:36;;;;;;;7.28;1.17;;;;;;;-144.47;53.15;53215.59;4983816;28;20354;-64
2022/07/15 02:16:02;;;;;;;3.88;1.50;;;;;;;-144.47;53.18;53308.97;4973171;28;20038;-64
2022/07/15 02:18:27;;;;;;;4.93;1.45;;;;;;;-144.47;53.31;53271.22;4983282;28;20500;-63
2022/07/15 02:20:52;;;;;;;5.57;2.20;;;;;;;-144.47;53.47;53229.50;5004850;28;20029;-63
2022/07/15 02:23:18;;;;;;;4.82;1.60;;;;;;;-144.47;53.53;53249.38;4979547;28;20031;-64
2022/07/15 02:25:43;;;;;;;4.13;1.33;;;;;;;-144.47;53.79;53263.28;4993640;28;20092;-64
2022/07/15 02:28:09;;;;;;;5.85;1.40;;;;;;;-144.47;53.93;53239.44;4999590;28;20109;-64
2022/07/15 02:30:38;;;;;;;4.93;2.00;;;;;;;-144.47;54.23;53273.22;4995948;28;20049;-63
2022/07/15 02:33:03;;;;;;;;;;;;;;;-144.47;54.38;53269.22;4999203;28;20022;-63
2022/07/15 02:35:30;;;;;;;6.35;1.25;;;;;;;-144.47;54.68;53241.44;5009034;28;19916;-63
2022/07/15 02:37:55;;;;;;;8.20;2.00;;;;;;;-144.47;54.92;53235.47;4980992;28;20033;-63
2022/07/15 02:40:21;;;;;;;4.78;1.40;;;;;;;-144.47;54.94;53207.66;5007328;28;20025;-61
2022/07/15 02:42:52;;;;;;;6.05;1.63;;;;;;;-144.47;55.48;53253.34;4998906;28;20061;-65
2022/07/15 02:45:21;;;;;;;9.30;1.30;;;;;;;-144.47;55.57;53259.31;4977281;28;20034;-61
2022/07/15 02:47:48;;;;;;;3.75;1.63;;;;;;;-144.47;55.84;53239.44;4982395;28;20468;-63
2022/07/15 02:50:14;;;;;;;4.78;1.58;;;;;;;-144.47;56.04;53227.53;4990289;28;20039;-64
2022/07/15 02:52:40;;;;;;;4.38;1.80;;;;;;;-144.47;56.42;53231.50;4986488;28;20480;-63
2022/07/15 02:55:06;;;;;;;3.28;1.52;;;;;;;-144.47;56.67;53229.50;5008093;28;20029;-64
2022/07/15 02:57:31;;;;;;;5.20;1.42;;;;;;;-144.47;56.93;53261.28;4983051;28;20027;-63
2022/07/15 02:59:56;;;;;;;10.75;1.80;;;;;;;-144.47;57.44;53243.41;5001114;28;20125;-65
2022/07/15 03:02:22;;;;;;;7.93;1.70;;;;;;;-144.47;57.58;53279.16;4981883;28;20586;-63
2022/07/15 03:04:47;;;;;;;6.47;1.50;;;;;;;-144.47;57.75;53261.28;4988792;28;20022;-63
2022/07/15 03:09:49;;;;;;;11.75;2.03;;;;;;;-144.47;58.17;53263.28;4977677;28;20184;-68
2022/07/15 03:12:14;;;;;;;7.50;1.90;;;;;;;-144.47;57.98;53239.44;4985179;28;20117;-68
2022/07/15 03:14:40;;;;;;;3.78;1.33;;;;;;;-144.47;58.23;53247.38;4990089;28;20038;-69
2022/07/15 03:17:06;;;;;;;3.85;1.65;;;;;;;-144.47;58.22;53283.13;4980284;28;20045;-67
2022/07/15 03:19:31;;;;;;;6.80;2.05;;;;;;;-144.47;58.58;53251.34;4971899;28;20037;-66
2022/07/15 03:21:56;;;;;;;6.30;2.15;;;;;;;-144.47;58.50;53269.22;4973908;28;20109;-68
2022/07/15 03:24:22;;;;;;;9.50;2.00;;;;;;;-144.47;58.71;53243.41;4980662;28;20368;-68
2022/07/15 03:26:47;;;;;;;6.88;1.80;;;;;;;-144.47;58.75;53275.19;4984605;28;20038;-69
2022/07/15 03:29:15;;;;;;;5.13;2.03;;;;;;;-144.47;58.85;53257.31;4971549;28;20210;-69
2022/07/15 03:31:41;;;;;;;6.68;1.80;;;;;;;-144.47;59.12;53289.09;4979873;28;20035;-68
2022/07/15 03:34:07;;;;;;;16.42;1.92;;;;;;;-144.47;59.03;53285.13;4975909;28;20031;-68
2022/07/15 03:36:32;;;;;;;10.40;1.80;;;;;;;-144.47;59.26;53279.16;4979498;28;20392;-70
2022/07/15 03:38:58;;;;;;;4.07;1.63;;;;;;;-144.47;59.61;53275.19;4971941;28;20166;-71
2022/07/15 03:41:23;;;;;;;11.45;2.83;;;;;;;-144.47;59.89;53263.28;4970662;28;20037;-70
2022/07/15 03:43:48;;;;;;;8.05;1.83;;;;;;;-144.47;59.84;53263.28;4976331;28;20479;-69
2022/07/15 03:46:15;;;;;;;4.72;1.70;;;;;;;-144.47;59.68;53269.22;4985219;28;20037;-68
2022/07/15 03:48:40;;;;;;;7.70;1.50;;;;;;;-144.47;59.94;53273.22;4985106;28;20099;-67
2022/07/15 03:51:06;;;;;;;7.15;1.67;;;;;;;-144.47;59.89;53273.22;4986790;28;20019;-68
2022/07/15 03:53:31;;;;;;;11.20;2.40;;;;;;;-144.47;60.06;53281.16;4984369;28;20165;-68
2022/07/15 03:55:57;;;;;;;10.98;1.95;;;;;;;-144.47;60.59;53253.34;4989237;28;20108;-69
2022/07/15 03:58:22;;;;;;;8.20;1.80;;;;;;;-144.47;60.49;53289.09;4977277;28;20068;-69
2022/07/15 04:00:48;;;;;;;5.88;1.92;;;;;;;-144.47;60.37;53283.13;4986007;28;20014;-69
2022/07/15 04:03:13;;;;;;;6.03;1.88;;;;;;;-144.47;60.38;53305.00;4985359;28;20026;-65
2022/07/15 04:05:41;;;;;;;7.57;2.25;;;;;;;-144.47;60.08;53265.25;4984423;28;20539;-68
2022/07/15 04:08:07;;;;;;;5.90;2.22;;;;;;;-144.47;59.94;53273.22;4979405;28;20037;-71
2022/07/15 04:10:32;;;;;;;9.00;1.75;;;;;;;-144.47;59.95;53293.06;4985016;28;20034;-71
2022/07/15 04:12:57;;;;;;;7.50;2.00;;;;;;;-144.47;59.87;53265.25;4977045;28;20032;-67
2022/07/15 04:15:23;;;;;;;16.27;3.40;;;;;;;-144.47;59.45;53251.34;4976456;28;20277;-67
2022/07/15 04:17:48;;;;;;;7.43;1.90;;;;;;;-144.47;59.26;53271.22;4978165;28;20073;-70
2022/07/15 04:20:14;;;;;;;8.63;2.25;;;;;;;-144.47;59.05;53273.22;4983302;28;20065;-68
2022/07/15 04:22:44;;;;;;;12.02;2.00;;;;;;;-144.47;58.23;53259.31;4978463;28;20158;-68
2022/07/15 04:25:11;;;;;;;11.35;2.55;;;;;;;-144.47;58.09;53291.09;4986124;28;20026;-67
2022/07/15 04:27:37;;;;;;;7.88;1.63;;;;;;;-144.47;58.16;53273.22;4981027;28;20034;-70
2022/07/15 04:30:06;;;;;;;7.50;1.88;;;;;;;-144.47;58.04;53261.28;4974742;28;20025;-69
2022/07/15 04:32:32;;;;;;;5.13;1.60;;;;;;;-144.47;58.14;53249.38;4980311;28;20120;-69
2022/07/15 04:34:57;;;;;;;5.88;1.60;;;;;;;-144.47;57.98;53239.44;4977118;28;20058;-70
2022/07/15 04:37:23;;;;;;;14.50;1.58;;;;;;;-144.47;57.88;53277.19;4981565;28;20480;-70
2022/07/15 04:39:48;;;;;;;12.27;3.13;;;;;;;-144.47;58.11;53239.44;4986219;28;20101;-68
2022/07/15 04:42:14;;;;;;;11.23;2.05;;;;;;;-144.47;57.67;53251.34;4979922;28;20170;-66
2022/07/15 04:44:40;;;;;;;10.65;1.90;;;;;;;-144.47;57.68;53275.19;4972407;28;20042;-68
2022/07/15 04:47:05;;;;;;;5.60;1.73;;;;;;;-144.47;57.43;53221.56;4975532;28;20023;-66
2022/07/15 04:52:15;;;;;;;7.22;1.70;;;;;;;-144.47;57.34;53261.28;4979820;28;20046;-70
2022/07/15 04:54:41;;;;;;;12.13;2.25;;;;;;;-144.47;57.03;53215.59;4972962;28;21562;-70
2022/07/15 04:57:06;;;;;;;7.43;1.90;;;;;;;-144.47;56.77;53243.41;4982384;28;20042;-68
2022/07/15 04:59:32;;;;;;;5.97;1.95;;;;;;;-144.47;57.09;53229.50;4975909;28;20378;-66
2022/07/15 05:01:58;;;;;;;13.02;2.08;;;;;;;-144.47;56.76;53259.31;4973144;28;20035;-69
2022/07/15 05:04:24;;;;;;;10.25;2.25;;;;;;;-144.47;56.58;53227.53;4979018;28;20107;-67
2022/07/15 05:06:49;;;;;;;10.90;2.10;;;;;;;-144.47;56.94;53297.03;4978964;28;20063;-68
2022/07/15 05:09:15;;;;;;;10.95;2.10;;;;;;;-144.47;56.67;53267.25;4982816;28;20642;-72
2022/07/15 05:11:40;;;;;;;9.73;1.98;;;;;;;-144.47;56.72;53245.41;4986129;28;20037;-69
2022/07/15 05:14:06;;;;;;;9.60;1.95;;;;;;;-144.47;56.52;53231.50;5004355;28;20018;-71
2022/07/15 05:16:31;;;;;;;8.27;1.77;;;;;;;-144.47;56.17;53257.31;4994214;28;20049;-71
2022/07/15 05:18:57;;;;;;;9.48;2.30;;;;;;;-144.47;56.42;53269.22;4991064;28;20033;-71
2022/07/15 05:21:22;;;;;;;7.28;1.90;;;;;;;-144.47;56.44;53233.47;4985554;28;20023;-70
2022/07/15 05:23:48;;;;;;;7.63;2.00;;;;;;;-144.47;56.29;53225.53;4975941;28;20093;-70
2022/07/15 05:26:13;;;;;;;8.52;1.98;;;;;;;-144.47;56.39;53265.25;4978887;28;20069;-72
2022/07/15 05:28:39;;;;;;;8.20;2.10;;;;;;;-144.47;56.20;53217.59;4977693;28;20070;-70
2022/07/15 05:31:05;;;;;;;8.23;1.70;;;;;;;-144.47;56.54;53203.69;4970829;28;20260;-68
2022/07/15 05:33:30;;;;;;;5.45;2.05;;;;;;;-144.47;56.39;53245.41;4980848;28;20027;-69
2022/07/15 05:35:56;;;;;;;11.70;1.80;;;;;;;-144.47;56.34;53235.47;4971483;28;20030;-70
2022/07/15 05:38:22;;;;;;;10.85;2.28;;;;;;;-144.47;56.02;53241.44;4978648;28;20030;-72
2022/07/15 05:40:48;;;;;;;13.93;2.00;;;;;;;-144.47;56.24;53209.66;4970245;28;20073;-69
2022/07/15 05:43:13;;;;;;;8.60;2.13;;;;;;;-144.47;55.86;53251.34;4972178;28;20023;-70
2022/07/15 05:45:39;;;;;;;7.32;1.83;;;;;;;-144.47;55.74;53259.31;4968178;28;20603;-69
2022/07/15 05:48:04;;;;;;;12.93;1.83;;;;;;;-144.47;55.55;53237.44;4973609;28;20061;-72
2022/07/15 05:50:30;;;;;;;7.35;2.03;;;;;;;-144.47;55.32;53271.22;4971752;28;20062;-70
2022/07/15 05:52:55;;;;;;;9.82;2.15;;;;;;;-144.47;55.14;53247.38;4975376;28;20057;-68
2022/07/15 05:55:21;;;;;;;10.52;2.22;;;;;;;-144.47;54.90;53231.50;4957755;28;21008;-70
2022/07/15 05:57:46;;;;;;;7.00;1.30;;;;;;;-144.47;54.83;53223.56;4968057;28;20897;-68
2022/07/15 06:00:13;;;;;;;10.05;1.92;;;;;;;-144.47;54.84;53229.50;4974303;28;20844;-73
2022/07/15 06:02:39;;;;;;;8.45;1.70;;;;;;;-144.47;54.67;53209.66;4967450;28;20677;-68
2022/07/15 06:05:05;;;;;;;11.10;1.75;;;;;;;-144.47;54.45;53249.38;4973757;28;20039;-72
2022/07/15 06:07:30;;;;;;;15.20;2.35;;;;;;;-144.47;54.60;53237.44;4970598;28;20039;-72
2022/07/15 06:09:55;;;;;;;20.83;2.25;;;;;;;-144.47;54.43;53221.56;4971847;28;20027;-73
2022/07/15 06:12:21;;;;;;;8.57;1.95;;;;;;;-144.47;54.08;53219.56;4972985;28;20038;-72
2022/07/15 06:14:46;;;;;;;11.23;1.73;;;;;;;-144.47;54.01;53201.69;4974963;28;20093;-74
2022/07/15 06:17:11;;;;;;;9.25;1.75;;;;;;;-144.47;54.12;53265.25;4977228;28;20031;-71
2022/07/15 06:19:37;;;;;;;8.85;1.90;;;;;;;-144.47;53.63;53231.50;4976845;28;20029;-70
2022/07/15 06:22:03;;;;;;;7.70;1.83;;;;;;;-144.47;53.22;53253.34;4979695;28;20033;-68
2022/07/15 06:24:29;;;;;;;12.45;1.75;;;;;;;-144.47;53.31;53233.47;4981053;28;20026;-69
2022/07/15 06:26:54;;;;;;;7.90;1.80;;;;;;;-144.47;52.71;53209.66;4984549;28;20034;-71
2022/07/15 06:29:20;;;;;;;10.05;1.75;;;;;;;-144.47;52.46;53235.47;4979636;28;20038;-72
2022/07/15 06:31:46;;;;;;;17.98;1.88;;;;;;;-144.47;52.44;53261.28;4988570;28;20574;-70
2022/07/15 06:34:11;;;;;;;11.98;1.63;;;;;;;-144.47;52.78;53229.50;4979935;28;20038;-70
2022/07/15 06:36:37;;;;;;;8.02;1.48;;;;;;;-144.47;51.85;53227.53;4972486;28;20026;-70
2022/07/15 06:39:03;;;;;;;11.27;1.50;;;;;;;-144.47;51.69;53253.34;4981467;28;20097;-70
2022/07/15 06:41:29;;;;;;;10.50;2.25;;;;;;;-144.47;51.94;53233.47;4990319;28;20500;-69
2022/07/15 06:43:54;;;;;;;12.32;2.05;;;;;;;-144.47;51.72;53237.44;4973522;28;20034;-72
2022/07/15 06:46:20;;;;;;;9.23;1.80;;;;;;;-144.47;51.67;53225.53;4972823;28;20029;-72
2022/07/15 06:48:46;;;;;;;7.00;1.63;;;;;;;-144.47;52.02;53285.13;4989719;28;20049;-70
2022/07/15 06:51:11;;;;;;;7.70;1.67;;;;;;;-144.47;51.34;53245.41;4980900;28;20027;-69
2022/07/15 06:53:37;;;;;;;9.02;1.73;;;;;;;-144.47;51.40;53221.56;4974952;28;20038;-71
2022/07/15 06:56:03;;;;;;;20.33;2.75;;;;;;;-144.47;51.40;53219.56;4974688;28;20085;-69
2022/07/15 06:58:28;;;;;;;16.25;2.58;;;;;;;-144.47;50.58;53259.31;4982206;28;20116;-69
2022/07/15 07:00:54;;;;;;;9.23;1.75;;;;;;;-144.47;50.35;53195.75;4977312;28;20384;-71
2022/07/15 07:03:19;;;;;;;12.65;1.48;;;;;;;-144.47;50.76;53209.66;4976885;28;20038;-70
2022/07/15 07:05:44;;;;;;;8.27;1.75;;;;;;;-144.47;49.75;53209.66;4972366;28;20158;-73
2022/07/15 07:08:10;;;;;;;13.07;2.03;;;;;;;-144.47;49.87;53263.28;4972527;28;20082;-73
2022/07/15 07:10:35;;;;;;;9.50;1.60;;;;;;;-144.47;49.74;53229.50;4981678;28;20026;-70
2022/07/15 07:13:01;;;;;;;11.52;1.67;;;;;;;-144.47;49.27;53217.59;4979875;28;20520;-70
2022/07/15 07:15:26;;;;;;;15.90;3.00;;;;;;;-144.47;49.75;53231.50;4977716;28;20026;-68
2022/07/15 07:17:52;;;;;;;11.20;1.73;;;;;;;-144.47;49.27;53217.59;4978891;28;20026;-70
2022/07/15 07:20:18;;;;;;;11.98;2.22;;;;;;;-144.47;49.03;53211.63;4989391;28;20037;-68
2022/07/15 07:22:43;;;;;;;9.55;1.42;;;;;;;-144.47;47.89;53203.69;4972629;28;20147;-71
2022/07/15 07:25:09;;;;;;;11.88;1.58;;;;;;;-144.47;47.62;53173.88;4972983;28;20058;-72
2022/07/15 07:27:34;;;;;;;7.32;1.42;;;;;;;-144.47;47.17;53219.56;4977850;28;20033;-73
2022/07/15 07:30:02;;;;;;;8.90;1.55;;;;;;;-144.47;47.17;53195.75;4977128;28;20022;-70
2022/07/15 07:32:28;;;;;;;12.57;1.63;;;;;;;-144.47;47.12;53189.78;4979712;28;20034;-71
2022/07/15 07:34:53;;;;;;;10.07;2.03;;;;;;;-144.47;46.83;53229.50;4978619;28;20026;-71
2022/07/15 07:37:19;;;;;;;12.82;3.03;;;;;;;-144.47;47.21;53185.81;5006159;28;20373;-70
2022/07/15 07:39:44;;;;;;;12.63;1.73;;;;;;;-144.47;47.62;53197.72;4973877;28;20412;-70
2022/07/15 07:42:09;;;;;;;7.68;1.65;;;;;;;-144.47;47.33;53215.59;4976693;28;20037;-72
2022/07/15 07:44:36;;;;;;;8.07;1.30;;;;;;;-144.47;47.36;53223.56;5001466;28;20105;-75
2022/07/15 07:47:02;;;;;;;6.15;1.30;;;;;;;-144.47;47.48;53175.88;4988286;28;20655;-71
2022/07/15 07:49:27;;;;;;;15.52;1.70;;;;;;;-144.47;46.88;53205.66;4990552;28;20038;-71
2022/07/15 07:51:52;;;;;;;12.15;1.75;;;;;;;-144.47;46.66;53201.69;4979553;28;20034;-71
2022/07/15 07:54:18;;;;;;;7.72;1.23;;;;;;;-144.47;46.09;53160.00;4971275;28;20031;-73
2022/07/15 07:56:45;;;;;;;15.25;2.30;;;;;;;-144.47;45.35;53219.56;4971543;28;20027;-72
2022/07/15 07:59:10;;;;;;;7.80;1.63;;;;;;;-144.47;45.26;53189.78;4971182;28;20030;-69
2022/07/15 08:01:36;;;;;;;8.98;1.65;;;;;;;-144.47;44.68;53122.25;4990690;28;20498;-71
2022/07/15 08:04:02;;;;;;;8.18;1.50;;;;;;;-144.47;43.87;53191.78;4977579;28;20213;-71
2022/07/15 08:06:27;;;;;;;11.02;1.42;;;;;;;-144.47;43.03;53161.97;4971298;28;20335;-71
2022/07/15 08:08:52;;;;;;;6.38;1.30;;;;;;;-144.47;42.38;53185.81;4971173;28;20041;-71
2022/07/15 08:11:19;;;;;;;8.10;1.38;;;;;;;-144.47;42.62;53167.94;4973131;28;20236;-70
2022/07/15 08:13:45;;;;;;;6.00;1.20;;;;;;;-144.47;40.20;53148.06;4979846;28;20108;-70
2022/07/15 08:16:10;;;;;;;15.88;2.50;;;;;;;-144.47;39.48;53156.00;4971377;28;20489;-72
2022/07/15 08:18:36;;;;;;;8.63;1.30;;;;;;;-144.47;38.27;53191.78;4971901;28;20058;-70
2022/07/15 08:21:03;;;;;;;3.03;0.77;;;;;;;-144.47;37.50;53154.03;4977768;28;20022;-71
2022/07/15 08:23:31;;;;;;;3.63;0.68;;;;;;;-144.47;38.27;53146.09;4990616;28;20036;-68
2022/07/15 08:25:56;;;;;;;2.47;0.77;;;;;;;-144.47;39.32;53167.94;4990508;28;20541;-70
2022/07/15 08:28:22;;;;;;;5.13;1.10;;;;;;;-144.47;38.94;53171.91;4977332;28;20022;-69
2022/07/15 08:30:47;;;;;;;7.53;1.23;;;;;;;-144.47;38.94;53169.91;4970512;28;20023;-71
2022/07/15 08:33:13;;;;;;;5.15;1.10;;;;;;;-144.47;36.77;53165.94;4983652;28;20076;-70
2022/07/15 08:35:41;;;;;;;10.75;1.30;;;;;;;-144.47;36.72;53175.88;4971074;28;20034;-70
2022/07/15 08:38:07;;;;;;;5.20;0.90;;;;;;;-144.47;36.51;53126.22;4970304;28;20122;-70
2022/07/15 08:40:34;;;;;;;7.63;0.90;;;;;;;-144.47;36.22;53177.88;4970836;28;20402;-71
2022/07/15 08:43:00;;;;;;;3.10;0.70;;;;;;;-144.47;36.41;53193.75;4985574;28;20031;-71
2022/07/15 08:45:26;;;;;;;5.97;1.13;;;;;;;-144.47;35.78;53160.00;4990589;28;20109;-70
2022/07/15 08:47:52;;;;;;;8.38;0.90;;;;;;;-144.47;36.13;53144.09;4989845;28;20361;-68
2022/07/15 08:50:18;;;;;;;3.25;1.08;;;;;;;-144.47;35.71;53132.19;4983306;28;20580;-70
2022/07/15 08:52:46;;;;;;;3.65;0.95;;;;;;;-144.47;35.30;53142.09;4973717;28;20023;-70
2022/07/15 08:55:12;;;;;;;9.35;0.93;;;;;;;-144.47;35.86;53142.09;4978195;28;20452;-71
2022/07/15 08:57:38;;;;;;;4.28;1.27;;;;;;;-144.47;35.93;53144.09;4989384;28;20022;-69
2022/07/15 09:00:10;;;;;;;11.98;2.35;;;;;;;-144.47;35.80;53106.34;4981746;28;20042;-73
2022/07/15 09:02:37;;;;;;;10.30;1.77;;;;;;;-144.47;35.59;53120.25;4970387;28;20431;-72
2022/07/15 09:05:18;;;;;;;5.10;0.77;;;;;;;-144.47;35.66;53124.22;4970849;28;20098;-72
2022/07/15 09:10:21;;;;;;;4.38;0.90;;;;;;;-144.47;34.80;53152.03;4992858;28;20050;-69
2022/07/15 09:12:51;;;;;;;8.00;1.17;;;;;;;-144.47;34.99;53124.22;5019887;28;20093;-70
2022/07/15 09:15:31;;;;;;;7.35;0.73;;;;;;;-144.47;35.41;53179.84;5020620;28;20104;-71
2022/07/15 09:18:29;;;;;;;2.60;0.73;;;;;;;-144.47;35.27;53150.06;5026105;28;20517;-71
2022/07/15 09:20:56;;;;;;;6.03;0.90;;;;;;;-144.47;35.44;53130.19;5010865;28;20062;-70
2022/07/15 09:23:30;;;;;;;5.45;0.70;;;;;;;-144.47;35.78;53134.16;4985596;28;20074;-71
2022/07/15 09:25:58;;;;;;;8.27;0.93;;;;;;;-144.47;35.27;53148.06;5002245;28;20053;-72
2022/07/15 09:28:36;;;;;;;1.58;0.60;;;;;;;-144.47;35.09;53167.94;5000724;28;20022;-73
2022/07/15 09:33:45;;;;;;;5.07;0.90;;;;;;;-144.47;34.72;53146.09;5015641;28;20045;-70
2022/07/15 09:36:22;;;;;;;6.00;0.77;;;;;;;-144.47;34.32;53140.13;5022711;28;20018;-69
2022/07/15 09:39:05;;;;;;;3.75;0.70;;;;;;;-144.47;34.38;53120.25;4999724;28;20385;-70
2022/07/15 09:41:37;;;;;;;7.07;0.98;;;;;;;-144.47;34.77;53150.06;5003195;28;20072;-72
2022/07/15 09:44:05;;;;;;;2.78;0.70;;;;;;;-144.47;34.22;53146.09;5021440;28;20029;-73
2022/07/15 09:46:44;;;;;;;4.43;1.13;;;;;;;-144.47;34.26;53160.00;5025946;28;20108;-69
2022/07/15 09:49:11;;;;;;;7.18;0.95;;;;;;;-144.47;33.78;53136.16;5002219;28;20033;-69
2022/07/15 09:51:46;;;;;;;4.83;0.83;;;;;;;-144.47;34.21;53126.22;5006348;28;20026;-70
2022/07/15 09:54:12;;;;;;;7.28;0.90;;;;;;;-144.47;34.37;53108.34;5002329;28;20164;-70
2022/07/15 09:56:38;;;;;;;4.35;0.90;;;;;;;-144.47;34.97;53130.19;5017659;28;20082;-72
2022/07/15 09:59:04;;;;;;;5.22;1.05;;;;;;;-144.47;34.57;53118.28;5001737;28;20528;-71
2022/07/15 10:01:30;;;;;;;8.60;1.10;;;;;;;-144.47;34.46;53122.25;5029159;28;20032;-68
2022/07/15 10:03:56;;;;;;;6.82;1.00;;;;;;;-144.47;34.35;53142.09;5018128;28;20025;-70
2022/07/15 10:06:26;;;;;;;5.75;1.15;;;;;;;-144.47;34.46;53138.13;5002820;28;20033;-70
2022/07/15 10:08:53;;;;;;;7.20;1.15;;;;;;;-144.47;34.24;53106.34;5029879;28;20044;-72
2022/07/15 10:11:19;;;;;;;7.85;0.93;;;;;;;-144.47;34.13;53156.00;5005031;28;20052;-70
2022/07/15 10:14:05;;;;;;;6.65;0.80;;;;;;;-144.47;34.04;53092.44;5007740;28;20105;-71
2022/07/15 10:16:52;;;;;;;7.85;1.20;;;;;;;-144.47;33.71;53110.31;4998383;28;20087;-72
2022/07/15 10:19:20;;;;;;;5.43;1.30;;;;;;;-144.47;33.87;53144.09;5014981;28;20514;-71
2022/07/15 10:22:13;;;;;;;4.10;0.82;;;;;;;-144.47;33.71;53136.16;5030274;28;20025;-69
2022/07/15 10:24:59;;;;;;;4.85;0.85;;;;;;;-144.47;33.30;53142.09;4991007;28;20022;-69
2022/07/15 10:27:57;;;;;;;4.20;0.80;;;;;;;-144.47;33.17;53122.25;5022377;28;20049;-68
2022/07/15 10:30:24;;;;;;;7.25;1.02;;;;;;;-144.47;33.65;53136.16;5009980;28;20105;-72
2022/07/15 10:33:13;;;;;;;2.72;0.80;;;;;;;-144.47;33.53;53126.22;5005961;28;20428;-68
2022/07/15 10:35:44;;;;;;;4.88;1.00;;;;;;;-144.47;33.42;53140.13;4990598;28;20105;-71
2022/07/15 10:38:30;;;;;;;6.30;0.88;;;;;;;-144.47;32.90;53142.09;5017207;28;20087;-70
2022/07/15 10:40:56;;;;;;;7.63;1.17;;;;;;;-144.47;33.16;53118.28;5020584;28;20050;-71
2022/07/15 10:43:45;;;;;;;12.70;2.17;;;;;;;-144.47;33.10;53134.16;5030145;28;20439;-71
2022/07/15 10:46:19;;;;;;;4.90;0.70;;;;;;;-144.47;33.00;53130.19;5029735;28;20121;-71
2022/07/15 10:48:47;;;;;;;7.10;0.98;;;;;;;-144.47;33.28;53140.13;4999763;28;20411;-71
2022/07/15 10:51:33;;;;;;;5.32;0.95;;;;;;;-144.47;33.66;53142.09;5003718;28;20026;-70
2022/07/15 10:53:58;;;;;;;6.65;0.80;;;;;;;-144.47;33.50;53120.25;5007312;28;20037;-71
2022/07/15 10:56:29;;;;;;;3.28;0.80;;;;;;;-144.47;33.65;53165.94;5003195;28;20018;-72
2022/07/15 10:59:10;;;;;;;5.07;0.93;;;;;;;-144.47;33.27;53142.09;5006739;28;20526;-70
2022/07/15 11:01:38;;;;;;;5.47;0.80;;;;;;;-144.47;33.24;53122.25;5002589;28;20033;-68
2022/07/15 11:04:26;;;;;;;7.88;1.08;;;;;;;-144.47;33.40;53142.09;5008231;28;20129;-69
2022/07/15 11:07:07;;;;;;;3.80;1.20;;;;;;;-144.47;33.29;53130.19;5019089;28;20228;-67
2022/07/15 11:10:01;;;;;;;2.55;0.82;;;;;;;-144.47;32.88;53126.22;4990895;28;20376;-70
2022/07/15 11:12:29;;;;;;;5.20;1.10;;;;;;;-144.47;32.10;53138.13;4987626;28;20064;-73
2022/07/15 11:14:56;;;;;;;6.45;1.13;;;;;;;-144.47;32.23;53114.31;5019521;28;20146;-69
2022/07/15 11:17:24;;;;;;;3.13;0.65;;;;;;;-144.47;32.29;53114.31;5028787;28;20029;-69
2022/07/15 11:19:53;;;;;;;10.35;2.00;;;;;;;-144.47;32.43;53118.28;5029092;28;20032;-72
2022/07/15 11:22:20;;;;;;;5.10;1.08;;;;;;;-144.47;32.90;53118.28;5029087;28;20048;-71
2022/07/15 11:24:46;;;;;;;4.30;1.10;;;;;;;-144.47;33.01;53112.31;5029172;28;20497;-68
2022/07/15 11:27:11;;;;;;;9.43;1.40;;;;;;;-144.47;33.11;53138.13;4998636;28;20037;-72
2022/07/15 11:29:45;;;;;;;6.20;1.10;;;;;;;-144.47;33.05;53148.06;4999175;28;20484;-71